sensor_id;sensor_type;location;lat;lon;timestamp;P1;durP1;ratioP1;P2;durP2;ratioP2
179;SDS011;78;48.788;9.010;2022-07-06T00:01:36;20.30;;;5.83;;
179;SDS011;78;48.788;9.010;2022-07-06T00:04:03;19.00;;;5.60;;
179;SDS011;78;48.788;9.010;2022-07-06T00:06:29;19.80;;;5.60;;
179;SDS011;78;48.788;9.010;2022-07-06T00:08:55;18.00;;;5.30;;
179;SDS011;78;48.788;9.010;2022-07-06T00:11:21;20.40;;;5.50;;
179;SDS011;78;48.788;9.010;2022-07-06T00:13:47;18.00;;;5.40;;
179;SDS011;78;48.788;9.010;2022-07-06T00:16:13;19.70;;;6.20;;
179;SDS011;78;48.788;9.010;2022-07-06T00:18:39;20.53;;;5.67;;
179;SDS011;78;48.788;9.010;2022-07-06T00:21:05;18.00;;;5.10;;
179;SDS011;78;48.788;9.010;2022-07-06T00:23:31;19.93;;;5.70;;
179;SDS011;78;48.788;9.010;2022-07-06T00:25:57;20.63;;;5.90;;
179;SDS011;78;48.788;9.010;2022-07-06T00:28:23;20.20;;;5.90;;
179;SDS011;78;48.788;9.010;2022-07-06T00:30:49;21.97;;;5.90;;
179;SDS011;78;48.788;9.010;2022-07-06T00:33:15;20.70;;;5.80;;
179;SDS011;78;48.788;9.010;2022-07-06T00:35:41;19.47;;;5.67;;
179;SDS011;78;48.788;9.010;2022-07-06T00:38:07;24.30;;;6.20;;
179;SDS011;78;48.788;9.010;2022-07-06T00:40:33;18.90;;;5.83;;
179;SDS011;78;48.788;9.010;2022-07-06T00:42:59;19.00;;;5.80;;
179;SDS011;78;48.788;9.010;2022-07-06T00:45:25;18.10;;;5.90;;
179;SDS011;78;48.788;9.010;2022-07-06T00:47:51;20.00;;;6.00;;
179;SDS011;78;48.788;9.010;2022-07-06T00:50:17;20.10;;;5.77;;
179;SDS011;78;48.788;9.010;2022-07-06T00:52:47;19.00;;;6.00;;
179;SDS011;78;48.788;9.010;2022-07-06T00:55:14;21.97;;;6.80;;
179;SDS011;78;48.788;9.010;2022-07-06T00:57:41;19.67;;;6.40;;
179;SDS011;78;48.788;9.010;2022-07-06T01:00:08;24.53;;;6.27;;
179;SDS011;78;48.788;9.010;2022-07-06T01:02:34;18.27;;;5.90;;
179;SDS011;78;48.788;9.010;2022-07-06T01:05:01;18.50;;;6.30;;
179;SDS011;78;48.788;9.010;2022-07-06T01:07:27;18.57;;;5.90;;
179;SDS011;78;48.788;9.010;2022-07-06T01:09:54;23.70;;;6.23;;
179;SDS011;78;48.788;9.010;2022-07-06T01:12:20;18.97;;;6.50;;
179;SDS011;78;48.788;9.010;2022-07-06T01:14:46;19.17;;;6.10;;
179;SDS011;78;48.788;9.010;2022-07-06T01:17:13;18.77;;;6.20;;
179;SDS011;78;48.788;9.010;2022-07-06T01:19:39;19.43;;;6.53;;
179;SDS011;78;48.788;9.010;2022-07-06T01:22:05;27.60;;;6.70;;
179;SDS011;78;48.788;9.010;2022-07-06T01:24:34;21.20;;;6.40;;
179;SDS011;78;48.788;9.010;2022-07-06T01:27:00;19.57;;;6.73;;
179;SDS011;78;48.788;9.010;2022-07-06T01:29:26;20.07;;;6.87;;
179;SDS011;78;48.788;9.010;2022-07-06T01:31:53;22.00;;;6.97;;
179;SDS011;78;48.788;9.010;2022-07-06T01:34:19;19.90;;;6.77;;
179;SDS011;78;48.788;9.010;2022-07-06T01:36:45;27.60;;;7.83;;
179;SDS011;78;48.788;9.010;2022-07-06T01:39:11;21.67;;;6.73;;
179;SDS011;78;48.788;9.010;2022-07-06T01:41:37;22.50;;;7.20;;
179;SDS011;78;48.788;9.010;2022-07-06T01:44:03;20.60;;;6.90;;
179;SDS011;78;48.788;9.010;2022-07-06T01:46:30;24.53;;;6.67;;
179;SDS011;78;48.788;9.010;2022-07-06T01:48:56;20.03;;;6.90;;
179;SDS011;78;48.788;9.010;2022-07-06T01:51:22;22.47;;;7.03;;
179;SDS011;78;48.788;9.010;2022-07-06T01:53:49;21.70;;;6.90;;
179;SDS011;78;48.788;9.010;2022-07-06T01:56:15;22.50;;;7.13;;
179;SDS011;78;48.788;9.010;2022-07-06T01:58:42;19.47;;;6.60;;
179;SDS011;78;48.788;9.010;2022-07-06T02:01:12;22.03;;;6.90;;
179;SDS011;78;48.788;9.010;2022-07-06T02:03:38;20.07;;;7.17;;
179;SDS011;78;48.788;9.010;2022-07-06T02:06:04;20.27;;;6.93;;
179;SDS011;78;48.788;9.010;2022-07-06T02:08:31;20.00;;;6.80;;
179;SDS011;78;48.788;9.010;2022-07-06T02:10:57;20.97;;;7.30;;
179;SDS011;78;48.788;9.010;2022-07-06T02:13:23;26.33;;;7.33;;
179;SDS011;78;48.788;9.010;2022-07-06T02:15:49;24.20;;;7.30;;
179;SDS011;78;48.788;9.010;2022-07-06T02:18:15;20.50;;;7.20;;
179;SDS011;78;48.788;9.010;2022-07-06T02:20:41;20.77;;;7.17;;
179;SDS011;78;48.788;9.010;2022-07-06T02:23:07;22.40;;;8.00;;
179;SDS011;78;48.788;9.010;2022-07-06T02:25:33;21.43;;;7.93;;
179;SDS011;78;48.788;9.010;2022-07-06T02:27:59;21.93;;;7.40;;
179;SDS011;78;48.788;9.010;2022-07-06T02:30:25;20.80;;;7.27;;
179;SDS011;78;48.788;9.010;2022-07-06T02:32:51;21.63;;;7.70;;
179;SDS011;78;48.788;9.010;2022-07-06T02:35:17;26.00;;;7.40;;
179;SDS011;78;48.788;9.010;2022-07-06T02:37:43;20.17;;;7.27;;
179;SDS011;78;48.788;9.010;2022-07-06T02:40:09;19.70;;;7.37;;
179;SDS011;78;48.788;9.010;2022-07-06T02:42:36;21.33;;;7.40;;
179;SDS011;78;48.788;9.010;2022-07-06T02:45:02;21.00;;;8.17;;
179;SDS011;78;48.788;9.010;2022-07-06T02:47:28;20.30;;;7.40;;
179;SDS011;78;48.788;9.010;2022-07-06T02:49:54;21.90;;;8.40;;
179;SDS011;78;48.788;9.010;2022-07-06T02:52:20;20.67;;;7.40;;
179;SDS011;78;48.788;9.010;2022-07-06T02:54:46;25.73;;;8.60;;
179;SDS011;78;48.788;9.010;2022-07-06T02:57:13;22.13;;;8.30;;
179;SDS011;78;48.788;9.010;2022-07-06T02:59:39;20.90;;;7.30;;
179;SDS011;78;48.788;9.010;2022-07-06T03:02:05;21.53;;;7.93;;
179;SDS011;78;48.788;9.010;2022-07-06T03:04:32;22.90;;;7.70;;
179;SDS011;78;48.788;9.010;2022-07-06T03:06:58;23.10;;;7.37;;
179;SDS011;78;48.788;9.010;2022-07-06T03:09:24;23.17;;;7.87;;
179;SDS011;78;48.788;9.010;2022-07-06T03:11:50;23.50;;;7.63;;
179;SDS011;78;48.788;9.010;2022-07-06T03:14:16;21.83;;;7.40;;
179;SDS011;78;48.788;9.010;2022-07-06T03:16:42;26.20;;;8.00;;
179;SDS011;78;48.788;9.010;2022-07-06T03:19:08;22.43;;;7.10;;
179;SDS011;78;48.788;9.010;2022-07-06T03:21:34;20.40;;;7.20;;
179;SDS011;78;48.788;9.010;2022-07-06T03:24:00;20.50;;;7.33;;
179;SDS011;78;48.788;9.010;2022-07-06T03:26:26;22.27;;;7.07;;
179;SDS011;78;48.788;9.010;2022-07-06T03:28:52;20.37;;;7.03;;
179;SDS011;78;48.788;9.010;2022-07-06T03:31:18;22.43;;;7.70;;
179;SDS011;78;48.788;9.010;2022-07-06T03:33:44;24.03;;;7.87;;
179;SDS011;78;48.788;9.010;2022-07-06T03:36:10;23.17;;;7.60;;
179;SDS011;78;48.788;9.010;2022-07-06T03:38:36;24.00;;;8.37;;
179;SDS011;78;48.788;9.010;2022-07-06T03:41:02;23.67;;;8.20;;
179;SDS011;78;48.788;9.010;2022-07-06T03:43:28;22.80;;;8.00;;
179;SDS011;78;48.788;9.010;2022-07-06T03:45:55;22.63;;;7.87;;
179;SDS011;78;48.788;9.010;2022-07-06T03:48:21;26.83;;;9.63;;
179;SDS011;78;48.788;9.010;2022-07-06T03:50:47;25.33;;;9.23;;
179;SDS011;78;48.788;9.010;2022-07-06T03:53:13;23.47;;;8.80;;
179;SDS011;78;48.788;9.010;2022-07-06T03:55:39;30.33;;;9.40;;
179;SDS011;78;48.788;9.010;2022-07-06T03:58:05;23.93;;;8.50;;
179;SDS011;78;48.788;9.010;2022-07-06T04:00:31;25.93;;;8.33;;
179;SDS011;78;48.788;9.010;2022-07-06T04:02:59;26.27;;;8.20;;
179;SDS011;78;48.788;9.010;2022-07-06T04:05:25;25.10;;;8.47;;
179;SDS011;78;48.788;9.010;2022-07-06T04:07:51;22.03;;;8.20;;
179;SDS011;78;48.788;9.010;2022-07-06T04:10:17;22.53;;;8.33;;
179;SDS011;78;48.788;9.010;2022-07-06T04:12:43;30.97;;;9.53;;
179;SDS011;78;48.788;9.010;2022-07-06T04:15:10;24.83;;;10.23;;
179;SDS011;78;48.788;9.010;2022-07-06T04:17:36;23.57;;;9.90;;
179;SDS011;78;48.788;9.010;2022-07-06T04:20:18;24.43;;;9.80;;
179;SDS011;78;48.788;9.010;2022-07-06T04:22:44;24.23;;;9.47;;
179;SDS011;78;48.788;9.010;2022-07-06T04:25:10;24.77;;;9.70;;
179;SDS011;78;48.788;9.010;2022-07-06T04:27:36;23.47;;;8.93;;
179;SDS011;78;48.788;9.010;2022-07-06T04:30:02;24.63;;;10.00;;
179;SDS011;78;48.788;9.010;2022-07-06T04:32:29;25.90;;;9.70;;
179;SDS011;78;48.788;9.010;2022-07-06T04:34:55;27.77;;;10.27;;
179;SDS011;78;48.788;9.010;2022-07-06T04:37:21;24.70;;;9.63;;
179;SDS011;78;48.788;9.010;2022-07-06T04:39:47;29.00;;;9.37;;
179;SDS011;78;48.788;9.010;2022-07-06T04:42:13;28.80;;;9.63;;
179;SDS011;78;48.788;9.010;2022-07-06T04:44:39;24.40;;;9.57;;
179;SDS011;78;48.788;9.010;2022-07-06T04:47:05;31.60;;;11.00;;
179;SDS011;78;48.788;9.010;2022-07-06T04:49:32;25.10;;;10.60;;
179;SDS011;78;48.788;9.010;2022-07-06T04:51:58;26.37;;;10.07;;
179;SDS011;78;48.788;9.010;2022-07-06T04:54:25;27.10;;;10.57;;
179;SDS011;78;48.788;9.010;2022-07-06T04:56:51;25.77;;;9.47;;
179;SDS011;78;48.788;9.010;2022-07-06T04:59:18;29.00;;;10.90;;
179;SDS011;78;48.788;9.010;2022-07-06T05:01:44;30.93;;;10.53;;
179;SDS011;78;48.788;9.010;2022-07-06T05:04:10;28.57;;;10.73;;
179;SDS011;78;48.788;9.010;2022-07-06T05:06:36;25.63;;;9.90;;
179;SDS011;78;48.788;9.010;2022-07-06T05:09:03;27.10;;;10.80;;
179;SDS011;78;48.788;9.010;2022-07-06T05:11:29;25.43;;;9.40;;
179;SDS011;78;48.788;9.010;2022-07-06T05:13:55;32.23;;;9.90;;
179;SDS011;78;48.788;9.010;2022-07-06T05:16:21;27.03;;;9.83;;
179;SDS011;78;48.788;9.010;2022-07-06T05:18:48;27.33;;;9.37;;
179;SDS011;78;48.788;9.010;2022-07-06T05:21:14;25.37;;;9.10;;
179;SDS011;78;48.788;9.010;2022-07-06T05:23:40;24.53;;;8.80;;
179;SDS011;78;48.788;9.010;2022-07-06T05:26:07;23.90;;;9.50;;
179;SDS011;78;48.788;9.010;2022-07-06T05:28:33;27.50;;;9.83;;
179;SDS011;78;48.788;9.010;2022-07-06T05:31:00;34.70;;;9.30;;
179;SDS011;78;48.788;9.010;2022-07-06T05:33:29;25.00;;;9.43;;
179;SDS011;78;48.788;9.010;2022-07-06T05:35:56;26.13;;;8.77;;
179;SDS011;78;48.788;9.010;2022-07-06T05:38:22;24.70;;;8.77;;
179;SDS011;78;48.788;9.010;2022-07-06T05:40:48;21.87;;;8.30;;
179;SDS011;78;48.788;9.010;2022-07-06T05:43:14;27.63;;;7.83;;
179;SDS011;78;48.788;9.010;2022-07-06T05:45:40;23.30;;;8.23;;
179;SDS011;78;48.788;9.010;2022-07-06T05:48:07;25.90;;;8.27;;
179;SDS011;78;48.788;9.010;2022-07-06T05:50:52;26.20;;;8.20;;
179;SDS011;78;48.788;9.010;2022-07-06T05:53:18;27.60;;;8.20;;
179;SDS011;78;48.788;9.010;2022-07-06T05:55:44;30.17;;;7.83;;
179;SDS011;78;48.788;9.010;2022-07-06T05:58:10;23.77;;;7.70;;
179;SDS011;78;48.788;9.010;2022-07-06T06:00:36;21.80;;;7.90;;
179;SDS011;78;48.788;9.010;2022-07-06T06:03:02;20.47;;;6.90;;
179;SDS011;78;48.788;9.010;2022-07-06T06:05:28;23.93;;;7.30;;
179;SDS011;78;48.788;9.010;2022-07-06T06:07:54;21.60;;;6.77;;
179;SDS011;78;48.788;9.010;2022-07-06T06:10:20;21.33;;;7.17;;
179;SDS011;78;48.788;9.010;2022-07-06T06:12:47;19.80;;;6.77;;
179;SDS011;78;48.788;9.010;2022-07-06T06:15:13;22.77;;;7.57;;
179;SDS011;78;48.788;9.010;2022-07-06T06:17:39;26.60;;;7.07;;
179;SDS011;78;48.788;9.010;2022-07-06T06:20:06;20.80;;;6.77;;
179;SDS011;78;48.788;9.010;2022-07-06T06:22:48;25.80;;;7.20;;
179;SDS011;78;48.788;9.010;2022-07-06T06:25:15;20.97;;;7.17;;
179;SDS011;78;48.788;9.010;2022-07-06T06:27:41;22.70;;;6.50;;
179;SDS011;78;48.788;9.010;2022-07-06T06:30:07;21.47;;;6.60;;
179;SDS011;78;48.788;9.010;2022-07-06T06:32:33;21.40;;;6.30;;
179;SDS011;78;48.788;9.010;2022-07-06T06:34:59;21.30;;;6.60;;
179;SDS011;78;48.788;9.010;2022-07-06T06:37:25;22.83;;;6.70;;
179;SDS011;78;48.788;9.010;2022-07-06T06:39:51;22.73;;;6.70;;
179;SDS011;78;48.788;9.010;2022-07-06T06:42:17;23.67;;;7.10;;
179;SDS011;78;48.788;9.010;2022-07-06T06:44:43;25.93;;;6.83;;
179;SDS011;78;48.788;9.010;2022-07-06T06:47:09;23.13;;;6.50;;
179;SDS011;78;48.788;9.010;2022-07-06T06:49:35;21.13;;;6.30;;
179;SDS011;78;48.788;9.010;2022-07-06T06:52:01;20.70;;;6.20;;
179;SDS011;78;48.788;9.010;2022-07-06T06:54:27;20.83;;;6.27;;
179;SDS011;78;48.788;9.010;2022-07-06T06:56:53;22.57;;;6.43;;
179;SDS011;78;48.788;9.010;2022-07-06T06:59:19;24.10;;;6.07;;
179;SDS011;78;48.788;9.010;2022-07-06T07:01:45;23.57;;;6.60;;
179;SDS011;78;48.788;9.010;2022-07-06T07:04:11;20.90;;;6.23;;
179;SDS011;78;48.788;9.010;2022-07-06T07:06:37;23.50;;;6.50;;
179;SDS011;78;48.788;9.010;2022-07-06T07:09:03;21.90;;;6.27;;
179;SDS011;78;48.788;9.010;2022-07-06T07:11:30;19.73;;;5.73;;
179;SDS011;78;48.788;9.010;2022-07-06T07:13:56;20.80;;;6.53;;
179;SDS011;78;48.788;9.010;2022-07-06T07:16:22;20.00;;;5.33;;
179;SDS011;78;48.788;9.010;2022-07-06T07:18:49;19.87;;;6.20;;
179;SDS011;78;48.788;9.010;2022-07-06T07:21:15;22.87;;;5.90;;
179;SDS011;78;48.788;9.010;2022-07-06T07:23:41;23.70;;;6.60;;
179;SDS011;78;48.788;9.010;2022-07-06T07:26:07;23.90;;;6.50;;
179;SDS011;78;48.788;9.010;2022-07-06T07:28:33;19.80;;;5.77;;
179;SDS011;78;48.788;9.010;2022-07-06T07:30:59;30.27;;;6.20;;
179;SDS011;78;48.788;9.010;2022-07-06T07:33:25;19.67;;;6.03;;
179;SDS011;78;48.788;9.010;2022-07-06T07:35:51;20.27;;;6.30;;
179;SDS011;78;48.788;9.010;2022-07-06T07:38:17;20.53;;;6.20;;
179;SDS011;78;48.788;9.010;2022-07-06T07:40:43;20.50;;;6.03;;
179;SDS011;78;48.788;9.010;2022-07-06T07:43:10;23.63;;;6.10;;
179;SDS011;78;48.788;9.010;2022-07-06T07:45:36;19.53;;;5.90;;
179;SDS011;78;48.788;9.010;2022-07-06T07:48:02;21.57;;;5.80;;
179;SDS011;78;48.788;9.010;2022-07-06T07:50:28;18.40;;;5.37;;
179;SDS011;78;48.788;9.010;2022-07-06T07:52:54;20.40;;;5.70;;
179;SDS011;78;48.788;9.010;2022-07-06T07:55:20;22.50;;;5.47;;
179;SDS011;78;48.788;9.010;2022-07-06T07:57:46;21.10;;;5.53;;
179;SDS011;78;48.788;9.010;2022-07-06T08:00:12;22.67;;;5.97;;
179;SDS011;78;48.788;9.010;2022-07-06T08:02:38;19.63;;;6.30;;
179;SDS011;78;48.788;9.010;2022-07-06T08:05:05;21.80;;;5.53;;
179;SDS011;78;48.788;9.010;2022-07-06T08:07:31;20.80;;;5.87;;
179;SDS011;78;48.788;9.010;2022-07-06T08:09:57;20.07;;;5.87;;
179;SDS011;78;48.788;9.010;2022-07-06T08:12:23;21.70;;;5.47;;
179;SDS011;78;48.788;9.010;2022-07-06T08:14:49;19.80;;;5.77;;
179;SDS011;78;48.788;9.010;2022-07-06T08:17:15;21.10;;;5.20;;
179;SDS011;78;48.788;9.010;2022-07-06T08:19:41;21.20;;;6.43;;
179;SDS011;78;48.788;9.010;2022-07-06T08:22:07;26.90;;;6.70;;
179;SDS011;78;48.788;9.010;2022-07-06T08:24:35;19.30;;;5.30;;
179;SDS011;78;48.788;9.010;2022-07-06T08:27:02;20.33;;;5.17;;
179;SDS011;78;48.788;9.010;2022-07-06T08:29:28;21.63;;;6.17;;
179;SDS011;78;48.788;9.010;2022-07-06T08:31:54;22.37;;;6.07;;
179;SDS011;78;48.788;9.010;2022-07-06T08:34:20;18.90;;;5.70;;
179;SDS011;78;48.788;9.010;2022-07-06T08:36:46;22.30;;;5.53;;
179;SDS011;78;48.788;9.010;2022-07-06T08:39:12;19.90;;;5.80;;
179;SDS011;78;48.788;9.010;2022-07-06T08:41:39;18.97;;;5.50;;
179;SDS011;78;48.788;9.010;2022-07-06T08:44:06;20.60;;;5.50;;
179;SDS011;78;48.788;9.010;2022-07-06T08:46:33;28.27;;;6.60;;
179;SDS011;78;48.788;9.010;2022-07-06T08:48:59;20.53;;;5.40;;
179;SDS011;78;48.788;9.010;2022-07-06T08:51:25;22.23;;;5.60;;
179;SDS011;78;48.788;9.010;2022-07-06T08:53:52;21.10;;;5.47;;
179;SDS011;78;48.788;9.010;2022-07-06T08:56:19;24.33;;;5.33;;
179;SDS011;78;48.788;9.010;2022-07-06T08:58:45;24.10;;;5.77;;
179;SDS011;78;48.788;9.010;2022-07-06T09:01:11;24.30;;;6.50;;
179;SDS011;78;48.788;9.010;2022-07-06T09:03:41;20.03;;;5.80;;
179;SDS011;78;48.788;9.010;2022-07-06T09:06:07;21.97;;;5.83;;
179;SDS011;78;48.788;9.010;2022-07-06T09:08:33;20.77;;;6.00;;
179;SDS011;78;48.788;9.010;2022-07-06T09:11:01;22.67;;;6.13;;
179;SDS011;78;48.788;9.010;2022-07-06T09:13:28;22.63;;;5.73;;
179;SDS011;78;48.788;9.010;2022-07-06T09:15:54;20.10;;;6.47;;
179;SDS011;78;48.788;9.010;2022-07-06T09:18:23;28.93;;;6.80;;
179;SDS011;78;48.788;9.010;2022-07-06T09:20:49;20.90;;;5.70;;
179;SDS011;78;48.788;9.010;2022-07-06T09:23:15;20.30;;;5.57;;
179;SDS011;78;48.788;9.010;2022-07-06T09:25:42;23.50;;;6.27;;
179;SDS011;78;48.788;9.010;2022-07-06T09:28:13;22.30;;;5.90;;
179;SDS011;78;48.788;9.010;2022-07-06T09:30:39;19.83;;;5.60;;
179;SDS011;78;48.788;9.010;2022-07-06T09:33:06;22.00;;;5.77;;
179;SDS011;78;48.788;9.010;2022-07-06T09:35:37;22.77;;;6.23;;
179;SDS011;78;48.788;9.010;2022-07-06T09:38:07;18.63;;;5.50;;
179;SDS011;78;48.788;9.010;2022-07-06T09:40:35;20.67;;;6.93;;
179;SDS011;78;48.788;9.010;2022-07-06T09:43:07;22.27;;;6.10;;
179;SDS011;78;48.788;9.010;2022-07-06T09:45:34;20.97;;;5.63;;
179;SDS011;78;48.788;9.010;2022-07-06T09:48:11;21.30;;;6.40;;
179;SDS011;78;48.788;9.010;2022-07-06T09:50:47;28.17;;;7.07;;
179;SDS011;78;48.788;9.010;2022-07-06T09:53:13;20.80;;;5.90;;
179;SDS011;78;48.788;9.010;2022-07-06T09:55:46;22.13;;;6.07;;
179;SDS011;78;48.788;9.010;2022-07-06T09:58:13;22.67;;;6.23;;
179;SDS011;78;48.788;9.010;2022-07-06T10:00:40;19.40;;;5.90;;
179;SDS011;78;48.788;9.010;2022-07-06T10:03:06;20.33;;;5.20;;
179;SDS011;78;48.788;9.010;2022-07-06T10:05:35;23.60;;;5.13;;
179;SDS011;78;48.788;9.010;2022-07-06T10:08:02;20.80;;;5.60;;
179;SDS011;78;48.788;9.010;2022-07-06T10:10:31;25.47;;;5.70;;
179;SDS011;78;48.788;9.010;2022-07-06T10:12:57;19.33;;;4.87;;
179;SDS011;78;48.788;9.010;2022-07-06T10:15:27;19.90;;;5.53;;
179;SDS011;78;48.788;9.010;2022-07-06T10:17:56;18.50;;;5.80;;
179;SDS011;78;48.788;9.010;2022-07-06T10:20:22;20.63;;;5.80;;
179;SDS011;78;48.788;9.010;2022-07-06T10:22:48;20.67;;;5.60;;
179;SDS011;78;48.788;9.010;2022-07-06T10:25:15;18.23;;;5.00;;
179;SDS011;78;48.788;9.010;2022-07-06T10:27:42;21.30;;;5.80;;
179;SDS011;78;48.788;9.010;2022-07-06T10:30:09;23.20;;;5.40;;
179;SDS011;78;48.788;9.010;2022-07-06T10:32:35;20.73;;;5.43;;
179;SDS011;78;48.788;9.010;2022-07-06T10:35:02;23.40;;;5.93;;
179;SDS011;78;48.788;9.010;2022-07-06T10:37:28;25.07;;;5.60;;
179;SDS011;78;48.788;9.010;2022-07-06T10:39:54;19.80;;;5.27;;
179;SDS011;78;48.788;9.010;2022-07-06T10:45:05;17.70;;;5.10;;
179;SDS011;78;48.788;9.010;2022-07-06T10:47:32;21.67;;;5.93;;
179;SDS011;78;48.788;9.010;2022-07-06T10:50:01;19.90;;;5.40;;
179;SDS011;78;48.788;9.010;2022-07-06T10:57:56;26.70;;;5.67;;
179;SDS011;78;48.788;9.010;2022-07-06T11:00:22;21.20;;;5.00;;
179;SDS011;78;48.788;9.010;2022-07-06T11:02:48;21.03;;;4.93;;
179;SDS011;78;48.788;9.010;2022-07-06T11:08:01;21.10;;;5.00;;
179;SDS011;78;48.788;9.010;2022-07-06T11:10:27;21.63;;;5.40;;
179;SDS011;78;48.788;9.010;2022-07-06T11:12:59;18.67;;;5.03;;
179;SDS011;78;48.788;9.010;2022-07-06T11:18:11;25.00;;;5.13;;
179;SDS011;78;48.788;9.010;2022-07-06T11:20:37;17.17;;;4.43;;
179;SDS011;78;48.788;9.010;2022-07-06T11:23:03;19.83;;;4.70;;
179;SDS011;78;48.788;9.010;2022-07-06T11:25:29;17.63;;;4.20;;
179;SDS011;78;48.788;9.010;2022-07-06T11:27:55;23.40;;;4.87;;
179;SDS011;78;48.788;9.010;2022-07-06T11:30:21;18.83;;;4.73;;
179;SDS011;78;48.788;9.010;2022-07-06T11:32:47;19.90;;;4.40;;
179;SDS011;78;48.788;9.010;2022-07-06T11:35:20;17.33;;;4.50;;
179;SDS011;78;48.788;9.010;2022-07-06T11:37:47;23.80;;;4.57;;
179;SDS011;78;48.788;9.010;2022-07-06T11:40:13;18.80;;;4.90;;
179;SDS011;78;48.788;9.010;2022-07-06T11:42:39;23.30;;;5.00;;
179;SDS011;78;48.788;9.010;2022-07-06T11:45:05;19.43;;;4.93;;
179;SDS011;78;48.788;9.010;2022-07-06T11:47:32;19.30;;;4.60;;
179;SDS011;78;48.788;9.010;2022-07-06T11:49:59;22.47;;;5.10;;
179;SDS011;78;48.788;9.010;2022-07-06T11:52:25;19.27;;;4.97;;
179;SDS011;78;48.788;9.010;2022-07-06T11:54:56;20.67;;;4.90;;
179;SDS011;78;48.788;9.010;2022-07-06T11:57:22;19.87;;;4.90;;
179;SDS011;78;48.788;9.010;2022-07-06T11:59:49;20.60;;;4.60;;
179;SDS011;78;48.788;9.010;2022-07-06T12:02:16;22.43;;;5.43;;
179;SDS011;78;48.788;9.010;2022-07-06T12:04:44;21.57;;;4.50;;
179;SDS011;78;48.788;9.010;2022-07-06T12:07:11;19.47;;;4.20;;
179;SDS011;78;48.788;9.010;2022-07-06T12:09:38;17.40;;;4.33;;
179;SDS011;78;48.788;9.010;2022-07-06T12:12:06;15.93;;;4.00;;
179;SDS011;78;48.788;9.010;2022-07-06T12:14:34;19.70;;;4.87;;
179;SDS011;78;48.788;9.010;2022-07-06T12:17:07;17.07;;;4.20;;
179;SDS011;78;48.788;9.010;2022-07-06T12:19:34;17.50;;;4.20;;
179;SDS011;78;48.788;9.010;2022-07-06T12:22:00;23.70;;;4.53;;
179;SDS011;78;48.788;9.010;2022-07-06T12:24:28;17.20;;;4.63;;
179;SDS011;78;48.788;9.010;2022-07-06T12:26:56;19.87;;;4.53;;
179;SDS011;78;48.788;9.010;2022-07-06T12:29:23;21.40;;;4.67;;
179;SDS011;78;48.788;9.010;2022-07-06T12:31:53;20.00;;;5.20;;
179;SDS011;78;48.788;9.010;2022-07-06T12:34:20;22.90;;;5.10;;
179;SDS011;78;48.788;9.010;2022-07-06T12:36:56;16.80;;;4.20;;
179;SDS011;78;48.788;9.010;2022-07-06T12:39:26;17.63;;;3.93;;
179;SDS011;78;48.788;9.010;2022-07-06T12:41:53;20.00;;;4.10;;
179;SDS011;78;48.788;9.010;2022-07-06T12:44:22;18.70;;;3.80;;
179;SDS011;78;48.788;9.010;2022-07-06T12:46:49;18.77;;;3.70;;
179;SDS011;78;48.788;9.010;2022-07-06T12:49:19;21.97;;;3.60;;
179;SDS011;78;48.788;9.010;2022-07-06T12:51:51;19.63;;;3.60;;
179;SDS011;78;48.788;9.010;2022-07-06T12:54:17;17.70;;;3.50;;
179;SDS011;78;48.788;9.010;2022-07-06T12:56:56;21.83;;;3.40;;
179;SDS011;78;48.788;9.010;2022-07-06T12:59:22;18.07;;;2.93;;
179;SDS011;78;48.788;9.010;2022-07-06T13:01:48;19.87;;;3.87;;
179;SDS011;78;48.788;9.010;2022-07-06T13:04:16;16.50;;;2.80;;
179;SDS011;78;48.788;9.010;2022-07-06T13:06:42;14.10;;;2.77;;
179;SDS011;78;48.788;9.010;2022-07-06T13:09:08;17.40;;;3.30;;
179;SDS011;78;48.788;9.010;2022-07-06T13:11:34;18.17;;;3.30;;
179;SDS011;78;48.788;9.010;2022-07-06T13:14:00;21.07;;;3.20;;
179;SDS011;78;48.788;9.010;2022-07-06T13:16:26;14.40;;;2.70;;
179;SDS011;78;48.788;9.010;2022-07-06T13:18:57;16.50;;;2.97;;
179;SDS011;78;48.788;9.010;2022-07-06T13:21:23;15.70;;;2.77;;
179;SDS011;78;48.788;9.010;2022-07-06T13:23:49;17.87;;;2.70;;
179;SDS011;78;48.788;9.010;2022-07-06T13:26:15;19.40;;;3.20;;
179;SDS011;78;48.788;9.010;2022-07-06T13:28:41;15.03;;;3.00;;
179;SDS011;78;48.788;9.010;2022-07-06T13:31:07;17.10;;;3.07;;
179;SDS011;78;48.788;9.010;2022-07-06T13:33:33;21.47;;;3.37;;
179;SDS011;78;48.788;9.010;2022-07-06T13:35:59;16.30;;;3.10;;
179;SDS011;78;48.788;9.010;2022-07-06T13:38:26;18.70;;;3.07;;
179;SDS011;78;48.788;9.010;2022-07-06T13:40:52;19.43;;;2.80;;
179;SDS011;78;48.788;9.010;2022-07-06T13:43:18;17.13;;;3.30;;
179;SDS011;78;48.788;9.010;2022-07-06T13:45:45;17.30;;;3.20;;
179;SDS011;78;48.788;9.010;2022-07-06T13:48:11;15.20;;;3.00;;
179;SDS011;78;48.788;9.010;2022-07-06T13:50:37;17.07;;;3.00;;
179;SDS011;78;48.788;9.010;2022-07-06T13:53:03;17.40;;;3.20;;
179;SDS011;78;48.788;9.010;2022-07-06T13:55:29;18.13;;;3.10;;
179;SDS011;78;48.788;9.010;2022-07-06T13:57:55;18.50;;;2.97;;
179;SDS011;78;48.788;9.010;2022-07-06T14:00:21;17.20;;;2.97;;
179;SDS011;78;48.788;9.010;2022-07-06T14:02:47;16.00;;;2.60;;
179;SDS011;78;48.788;9.010;2022-07-06T14:05:13;16.00;;;2.90;;
179;SDS011;78;48.788;9.010;2022-07-06T14:07:39;16.00;;;2.60;;
179;SDS011;78;48.788;9.010;2022-07-06T14:10:05;16.80;;;2.70;;
179;SDS011;78;48.788;9.010;2022-07-06T14:12:31;20.10;;;2.77;;
179;SDS011;78;48.788;9.010;2022-07-06T14:14:57;15.50;;;2.40;;
179;SDS011;78;48.788;9.010;2022-07-06T14:17:23;17.00;;;2.70;;
179;SDS011;78;48.788;9.010;2022-07-06T14:19:50;19.70;;;2.77;;
179;SDS011;78;48.788;9.010;2022-07-06T14:22:16;14.60;;;2.53;;
179;SDS011;78;48.788;9.010;2022-07-06T14:24:42;15.10;;;2.63;;
179;SDS011;78;48.788;9.010;2022-07-06T14:27:08;16.40;;;2.63;;
179;SDS011;78;48.788;9.010;2022-07-06T14:29:34;14.43;;;2.40;;
179;SDS011;78;48.788;9.010;2022-07-06T14:32:00;16.20;;;2.70;;
179;SDS011;78;48.788;9.010;2022-07-06T14:34:26;15.23;;;2.77;;
179;SDS011;78;48.788;9.010;2022-07-06T14:36:52;16.10;;;2.63;;
179;SDS011;78;48.788;9.010;2022-07-06T14:39:18;15.83;;;2.80;;
179;SDS011;78;48.788;9.010;2022-07-06T14:41:44;17.80;;;2.57;;
179;SDS011;78;48.788;9.010;2022-07-06T14:44:10;15.03;;;2.30;;
179;SDS011;78;48.788;9.010;2022-07-06T14:46:36;15.83;;;2.87;;
179;SDS011;78;48.788;9.010;2022-07-06T14:49:02;18.00;;;2.70;;
179;SDS011;78;48.788;9.010;2022-07-06T14:51:28;16.97;;;2.63;;
179;SDS011;78;48.788;9.010;2022-07-06T14:53:54;18.83;;;2.63;;
179;SDS011;78;48.788;9.010;2022-07-06T14:56:21;18.90;;;2.60;;
179;SDS011;78;48.788;9.010;2022-07-06T14:58:47;17.87;;;2.23;;
179;SDS011;78;48.788;9.010;2022-07-06T15:01:13;14.93;;;2.50;;
179;SDS011;78;48.788;9.010;2022-07-06T15:03:39;15.32;;;2.35;;
179;SDS011;78;48.788;9.010;2022-07-06T15:06:05;16.48;;;2.85;;
179;SDS011;78;48.788;9.010;2022-07-06T15:08:32;15.45;;;2.30;;
179;SDS011;78;48.788;9.010;2022-07-06T15:10:58;14.63;;;2.50;;
179;SDS011;78;48.788;9.010;2022-07-06T15:13:24;15.52;;;2.45;;
179;SDS011;78;48.788;9.010;2022-07-06T15:15:51;13.63;;;2.33;;
179;SDS011;78;48.788;9.010;2022-07-06T15:18:17;13.30;;;2.20;;
179;SDS011;78;48.788;9.010;2022-07-06T15:20:44;15.23;;;2.30;;
179;SDS011;78;48.788;9.010;2022-07-06T15:23:11;13.20;;;2.13;;
179;SDS011;78;48.788;9.010;2022-07-06T15:25:37;14.30;;;2.10;;
179;SDS011;78;48.788;9.010;2022-07-06T15:28:04;16.13;;;2.43;;
179;SDS011;78;48.788;9.010;2022-07-06T15:30:30;16.80;;;2.47;;
179;SDS011;78;48.788;9.010;2022-07-06T15:32:58;14.87;;;2.30;;
179;SDS011;78;48.788;9.010;2022-07-06T15:35:25;13.90;;;2.30;;
179;SDS011;78;48.788;9.010;2022-07-06T15:37:51;20.60;;;2.60;;
179;SDS011;78;48.788;9.010;2022-07-06T15:40:18;17.90;;;2.70;;
179;SDS011;78;48.788;9.010;2022-07-06T15:42:49;16.80;;;3.37;;
179;SDS011;78;48.788;9.010;2022-07-06T15:45:16;15.90;;;2.50;;
179;SDS011;78;48.788;9.010;2022-07-06T15:47:43;14.90;;;2.70;;
179;SDS011;78;48.788;9.010;2022-07-06T15:50:10;14.93;;;2.53;;
179;SDS011;78;48.788;9.010;2022-07-06T15:52:36;17.03;;;2.60;;
179;SDS011;78;48.788;9.010;2022-07-06T15:55:03;15.30;;;2.67;;